Hauptseite
METAR-TAF:

METAR-TAF

Flughäfen :

Diepholz, Deutschland

Fliegerhorst Diepholz

Breite: 52-35N, Länge: 008-21E, Höhe: 39 m

Beobachtung

Neuester Wetterbericht von vor 37 Minuten, um 09:20 UTC
Wind 7 kt aus Südost
Temperatur 23°C
Luftfeuchtigkeit 44%
Luftdruck 1029 hPa
Sichtweite 10 km oder mehr
Leicht bewölkt in der Höhe von 30000 ft

METAR: ETND 190920Z 13007KT 9999 FEW300 23/10 Q1029 BLU+

Zeit: 11:57 (09:57 UTC)

Prognose

Neuester Wetterbericht von vor 23 Stunden und 47 Minuten, um 10:10 UTC
Gültige Prognose vom 18 um 11 UTC bis 18 um 20 UTC
Wind 3 kt aus unterschiedlichen Richtungen
Sichtweite 10 km oder mehr
Leicht bewölkt in der Höhe von 30000 ft

TAF: ETND 181010Z 1811/1820 VRB03KT 9999 NSW FEW300 BY ETGL

Wetterbeobachtungen und Prognosen von mehr als 4000 Flughäfen (METAR und TAF Bericht).

Die verfügbaren Stationen werden durch gelbe und rote Markierungen auf der Karte dargestellt.

Führen Sie die Maus auf sie, um den Namen der Station zu sehen.

Darauf klicken, um die Beobachtung von Wetterbeobachtungen und Prognosen zu sehen.

Um die Karte zu ändern : klicken Sie auf den grünen Tasten mit einem schwarzen Kreuz Zum Vergrößern, auf den grünen Button mit einem Gedankenstrich zu verkleinern, oder auf die grünen Pfeile für benachbarte Karten.


METAR-TAF: